createdAt,value
2023-09-14T00:00:54.829Z,80.58
2023-09-14T00:03:22.484Z,81.03
2023-09-14T00:05:52.061Z,79.79
2023-09-14T00:08:21.468Z,82.03
2023-09-14T00:10:54.977Z,82.10
2023-09-14T00:13:22.403Z,82.72
2023-09-14T00:15:49.991Z,81.57
2023-09-14T00:18:17.707Z,82.11
2023-09-14T00:20:45.344Z,81.64
2023-09-14T00:23:12.777Z,82.93
2023-09-14T00:25:41.562Z,82.59
2023-09-14T00:28:09.059Z,82.86
2023-09-14T00:30:36.591Z,82.99
2023-09-14T00:33:04.179Z,81.81
2023-09-14T00:35:31.909Z,81.82
2023-09-14T00:37:59.324Z,83.09
2023-09-14T00:40:27.521Z,83.86
2023-09-14T00:42:56.483Z,83.53
2023-09-14T00:45:24.613Z,83.87
2023-09-14T00:47:53.957Z,82.51
2023-09-14T00:50:22.889Z,84.19
2023-09-14T00:52:54.018Z,84.10
2023-09-14T00:55:21.702Z,83.24
2023-09-14T00:57:49.871Z,82.27
2023-09-14T01:00:19.680Z,83.44
2023-09-14T01:02:47.547Z,83.24
2023-09-14T01:05:15.460Z,84.17
2023-09-14T01:07:43.139Z,82.94
2023-09-14T01:10:11.994Z,82.31
2023-09-14T01:12:40.445Z,83.60
2023-09-14T01:15:15.991Z,84.20
2023-09-14T01:17:54.422Z,83.79
2023-09-14T01:20:41.041Z,83.68
2023-09-14T01:23:26.013Z,82.39
2023-09-14T01:25:55.138Z,82.90
2023-09-14T01:28:22.657Z,84.42
2023-09-14T01:30:50.141Z,84.10
2023-09-14T01:33:18.995Z,82.55
2023-09-14T01:35:51.760Z,83.23
2023-09-14T01:38:19.795Z,81.97
2023-09-14T01:40:49.339Z,82.62
2023-09-14T01:43:19.149Z,82.25
2023-09-14T01:45:47.371Z,82.58
2023-09-14T01:48:19.502Z,84.27
2023-09-14T01:50:47.070Z,83.71
2023-09-14T01:53:14.564Z,83.89
2023-09-14T01:55:42.005Z,83.20
2023-09-14T01:58:10.475Z,83.17
2023-09-14T02:00:39.354Z,83.92
2023-09-14T02:03:06.943Z,83.01
2023-09-14T02:05:34.502Z,83.42
2023-09-14T02:08:02.097Z,83.67
2023-09-14T02:10:29.566Z,83.67
2023-09-14T02:12:57.087Z,83.35
2023-09-14T02:15:24.534Z,83.60
2023-09-14T02:17:53.565Z,83.91
2023-09-14T02:20:20.995Z,83.49
2023-09-14T02:22:48.933Z,84.02
2023-09-14T02:25:16.516Z,83.82
2023-09-14T02:27:45.209Z,84.19
2023-09-14T02:30:13.432Z,83.55
2023-09-14T02:32:40.861Z,83.08
2023-09-14T02:35:10.430Z,85.66
2023-09-14T02:37:37.991Z,85.30
2023-09-14T02:40:07.276Z,86.12
2023-09-14T02:42:37.857Z,86.59
2023-09-14T02:45:07.511Z,86.00
2023-09-14T02:47:35.162Z,85.45
2023-09-14T02:50:02.805Z,84.63
2023-09-14T02:52:31.613Z,84.85
2023-09-14T02:55:00.373Z,85.10
2023-09-14T02:57:27.929Z,86.87
2023-09-14T02:59:55.564Z,84.64
2023-09-14T03:02:23.581Z,84.99
2023-09-14T03:04:51.076Z,84.46
2023-09-14T03:07:18.685Z,85.74
2023-09-14T03:09:47.478Z,85.18
2023-09-14T03:12:14.943Z,85.79
2023-09-14T03:14:42.434Z,85.70
2023-09-14T03:17:09.896Z,84.64
2023-09-14T03:19:37.332Z,86.28
2023-09-14T03:22:05.242Z,85.89
2023-09-14T03:24:32.724Z,86.47
2023-09-14T03:27:01.499Z,86.31
2023-09-14T03:29:30.045Z,85.33
2023-09-14T03:31:57.492Z,85.78
2023-09-14T03:34:25.011Z,85.91
2023-09-14T03:36:52.608Z,85.68
2023-09-14T03:39:20.090Z,86.00
2023-09-14T03:41:50.183Z,88.06
2023-09-14T03:44:18.979Z,88.63
2023-09-14T03:46:46.544Z,87.33
2023-09-14T03:49:14.078Z,85.92
2023-09-14T03:51:41.579Z,85.15
2023-09-14T03:54:10.095Z,85.71
2023-09-14T03:56:38.626Z,85.81
2023-09-14T03:59:06.236Z,85.48
2023-09-14T04:01:35.138Z,84.83
2023-09-14T04:04:03.731Z,85.33
2023-09-14T04:06:31.334Z,84.92
2023-09-14T04:08:58.762Z,84.91
2023-09-14T04:11:26.244Z,84.26
2023-09-14T04:13:54.908Z,85.02
2023-09-14T04:16:22.423Z,84.90
2023-09-14T04:18:51.613Z,84.22
2023-09-14T04:21:18.194Z,83.88
2023-09-14T04:23:46.365Z,83.95
2023-09-14T04:26:13.896Z,83.97
2023-09-14T04:28:41.443Z,84.00
2023-09-14T04:31:10.733Z,83.74
2023-09-14T04:33:38.390Z,84.30
2023-09-14T04:36:07.623Z,83.76
2023-09-14T04:38:35.316Z,82.98
2023-09-14T04:41:04.997Z,83.14
2023-09-14T04:43:33.664Z,83.22
2023-09-14T04:46:02.306Z,83.30
2023-09-14T04:48:30.840Z,82.87
2023-09-14T04:50:58.641Z,83.42
2023-09-14T04:53:28.321Z,83.77
2023-09-14T04:55:56.044Z,83.54
2023-09-14T04:58:26.518Z,83.19
2023-09-14T05:00:55.586Z,82.71
2023-09-14T05:03:23.595Z,83.28
2023-09-14T05:05:52.972Z,83.86
2023-09-14T05:08:20.645Z,84.06
2023-09-14T05:10:51.807Z,83.74
2023-09-14T05:13:21.613Z,82.93
2023-09-14T05:15:49.398Z,83.32
2023-09-14T05:18:16.863Z,82.51
2023-09-14T05:20:45.054Z,81.72
2023-09-14T05:23:18.483Z,82.89
2023-09-14T05:25:46.617Z,82.63
2023-09-14T05:28:16.439Z,81.58
2023-09-14T05:30:44.837Z,80.87
2023-09-14T05:33:12.522Z,81.45
2023-09-14T05:35:40.254Z,81.96
2023-09-14T05:38:07.680Z,81.00
2023-09-14T05:40:35.130Z,81.19
2023-09-14T05:43:02.673Z,81.65
2023-09-14T05:45:31.456Z,80.14
2023-09-14T05:47:58.911Z,78.72
2023-09-14T05:50:26.371Z,79.29
2023-09-14T05:52:56.411Z,78.37
2023-09-14T05:55:23.962Z,79.29
2023-09-14T05:57:51.525Z,79.42
2023-09-14T06:00:20.148Z,79.30
2023-09-14T06:02:49.073Z,79.25
2023-09-14T06:05:25.318Z,79.35
2023-09-14T06:07:54.291Z,79.36
2023-09-14T06:10:22.121Z,79.32
2023-09-14T06:12:51.043Z,79.19
2023-09-14T06:15:18.644Z,79.01
2023-09-14T06:17:46.085Z,79.89
2023-09-14T06:20:15.166Z,80.05
2023-09-14T06:22:42.785Z,79.92
2023-09-14T06:25:10.766Z,79.60
2023-09-14T06:27:38.332Z,79.31
2023-09-14T06:30:07.550Z,80.00
2023-09-14T06:32:35.061Z,80.77
2023-09-14T06:35:02.638Z,80.50
2023-09-14T06:37:31.522Z,79.69
2023-09-14T06:39:59.126Z,78.85
2023-09-14T06:42:26.850Z,79.67
2023-09-14T06:44:54.330Z,77.55
2023-09-14T06:47:21.774Z,79.32
2023-09-14T06:49:49.499Z,78.86
2023-09-14T06:52:16.993Z,77.99
2023-09-14T06:54:46.503Z,78.76
2023-09-14T06:57:14.016Z,77.87
2023-09-14T06:59:41.521Z,79.38
2023-09-14T07:02:09.000Z,78.39
2023-09-14T07:04:36.687Z,77.54
2023-09-14T07:07:04.368Z,78.32
2023-09-14T07:09:32.100Z,77.93
2023-09-14T07:12:01.277Z,77.29
2023-09-14T07:14:28.751Z,78.46
2023-09-14T07:16:56.450Z,77.87
2023-09-14T07:19:27.450Z,77.86
2023-09-14T07:21:55.908Z,77.34
2023-09-14T07:24:23.717Z,77.62
2023-09-14T07:26:51.178Z,81.59
2023-09-14T07:29:20.820Z,77.99
2023-09-14T07:31:49.642Z,78.49
2023-09-14T07:34:17.192Z,78.28
2023-09-14T07:36:45.120Z,76.88
2023-09-14T07:39:12.590Z,76.00
2023-09-14T07:41:40.034Z,76.67
2023-09-14T07:44:07.610Z,76.08
2023-09-14T07:46:38.080Z,76.37
2023-09-14T07:49:05.758Z,75.93
2023-09-14T07:51:33.354Z,74.89
2023-09-14T07:54:01.490Z,75.07
2023-09-14T07:56:29.126Z,74.27
2023-09-14T07:58:56.595Z,74.92
2023-09-14T08:01:24.144Z,74.58
2023-09-14T08:03:53.216Z,74.20
2023-09-14T08:06:24.623Z,72.76
2023-09-14T08:08:52.774Z,73.35
2023-09-14T08:11:20.237Z,72.59
2023-09-14T08:13:48.036Z,72.90
2023-09-14T08:16:15.850Z,73.98
2023-09-14T08:18:43.940Z,72.74
2023-09-14T08:21:13.088Z,72.39
2023-09-14T08:23:40.572Z,71.53
2023-09-14T08:26:08.197Z,70.46
2023-09-14T08:28:36.266Z,72.34
2023-09-14T08:31:03.879Z,71.13
2023-09-14T08:33:31.682Z,70.45
2023-09-14T08:35:59.170Z,71.93
2023-09-14T08:38:28.024Z,71.81
2023-09-14T08:40:59.072Z,72.09
2023-09-14T08:43:26.797Z,71.72
2023-09-14T08:45:56.666Z,73.70
2023-09-14T08:48:28.350Z,72.01
2023-09-14T08:50:57.621Z,69.75
2023-09-14T08:53:25.628Z,69.49
2023-09-14T08:55:54.439Z,70.54
2023-09-14T08:58:22.392Z,69.70
2023-09-14T09:00:50.761Z,69.11
2023-09-14T09:03:18.968Z,70.52
2023-09-14T09:05:47.065Z,69.46
2023-09-14T09:08:16.880Z,68.74
2023-09-14T09:10:45.188Z,67.35
2023-09-14T09:13:14.074Z,68.83
2023-09-14T09:15:41.530Z,69.57
2023-09-14T09:18:11.670Z,69.75
2023-09-14T09:20:41.807Z,67.90
2023-09-14T09:23:10.387Z,68.11
2023-09-14T09:25:45.956Z,69.17
2023-09-14T09:28:14.812Z,69.32
2023-09-14T09:30:42.653Z,67.62
2023-09-14T09:33:10.273Z,67.83
2023-09-14T09:35:37.826Z,67.44
2023-09-14T09:38:13.484Z,70.79
2023-09-14T09:40:43.012Z,69.44
2023-09-14T09:43:10.796Z,68.01
2023-09-14T09:45:43.224Z,66.16
2023-09-14T09:48:11.316Z,65.90
2023-09-14T09:50:39.109Z,64.81
2023-09-14T09:53:11.596Z,63.85
2023-09-14T09:55:39.294Z,63.74
2023-09-14T09:58:09.100Z,64.60
2023-09-14T10:00:38.069Z,62.98
2023-09-14T10:03:07.359Z,61.46
2023-09-14T10:05:38.164Z,62.32
2023-09-14T10:08:12.811Z,64.08
2023-09-14T10:10:41.375Z,63.48
2023-09-14T10:13:09.463Z,64.32
2023-09-14T10:15:38.267Z,62.81
2023-09-14T10:18:07.728Z,62.19
2023-09-14T10:20:36.195Z,61.84
2023-09-14T10:23:04.493Z,61.07
2023-09-14T10:25:32.362Z,62.18
2023-09-14T10:28:02.888Z,61.94
2023-09-14T10:30:30.961Z,61.86
2023-09-14T10:33:00.825Z,62.62
2023-09-14T10:35:31.626Z,63.97
2023-09-14T10:38:00.395Z,65.50
2023-09-14T10:40:29.829Z,65.36
2023-09-14T10:42:57.351Z,65.33
2023-09-14T10:45:26.648Z,65.47
2023-09-14T10:47:55.569Z,63.83
2023-09-14T10:50:23.924Z,63.50
2023-09-14T10:52:54.911Z,63.74
2023-09-14T10:55:26.520Z,63.06
2023-09-14T10:57:54.119Z,63.33
2023-09-14T11:03:20.715Z,65.88
2023-09-14T11:05:53.095Z,64.05
2023-09-14T11:08:23.257Z,63.85
2023-09-14T11:10:56.452Z,63.23
2023-09-14T11:13:35.669Z,64.01
2023-09-14T11:16:13.143Z,62.17
2023-09-14T11:18:56.531Z,62.84
2023-09-14T11:21:46.582Z,64.84
2023-09-14T11:24:18.543Z,62.83
2023-09-14T11:26:53.192Z,61.83
2023-09-14T11:29:25.320Z,61.62
2023-09-14T11:32:02.200Z,61.09
2023-09-14T11:34:37.245Z,60.31
2023-09-14T11:37:09.273Z,60.44
2023-09-14T11:39:46.062Z,59.76
2023-09-14T11:42:19.617Z,59.45
2023-09-14T11:44:52.390Z,56.89
2023-09-14T11:47:27.338Z,56.64
2023-09-14T11:49:59.146Z,56.75
2023-09-14T11:52:28.173Z,57.04
2023-09-14T11:54:56.937Z,57.47
2023-09-14T11:57:28.615Z,57.36
2023-09-14T11:59:56.151Z,55.96
2023-09-14T12:02:23.862Z,56.74
2023-09-14T12:04:52.298Z,55.10
2023-09-14T12:07:22.696Z,56.60
2023-09-14T12:09:50.912Z,57.61
2023-09-14T12:12:28.795Z,56.83
2023-09-14T12:14:58.676Z,55.99
2023-09-14T12:17:28.075Z,55.62
2023-09-14T12:19:57.717Z,56.38
2023-09-14T12:22:27.450Z,55.25
2023-09-14T12:24:56.314Z,54.77
2023-09-14T12:27:24.532Z,54.99
2023-09-14T12:29:54.003Z,54.53
2023-09-14T12:32:21.457Z,55.59
2023-09-14T12:34:49.524Z,56.31
2023-09-14T12:37:19.126Z,56.02
2023-09-14T12:39:52.797Z,57.02
2023-09-14T12:42:21.571Z,55.63
2023-09-14T12:44:49.324Z,54.73
2023-09-14T12:47:18.321Z,54.46
2023-09-14T12:49:46.162Z,54.64
2023-09-14T12:52:14.067Z,57.35
2023-09-14T12:54:43.243Z,55.41
2023-09-14T12:57:11.979Z,56.67
2023-09-14T12:59:40.308Z,57.39
2023-09-14T13:02:08.071Z,56.48
2023-09-14T13:04:38.659Z,56.16
2023-09-14T13:07:06.230Z,56.84
2023-09-14T13:09:35.887Z,55.14
2023-09-14T13:12:03.816Z,55.38
2023-09-14T13:14:31.358Z,55.55
2023-09-14T13:16:59.581Z,56.21
2023-09-14T13:19:28.591Z,54.92
2023-09-14T13:22:06.963Z,54.86
2023-09-14T13:24:34.501Z,55.03
2023-09-14T13:27:02.072Z,56.51
2023-09-14T13:29:29.580Z,56.26
2023-09-14T13:31:57.027Z,55.64
2023-09-14T13:34:24.455Z,55.61
2023-09-14T13:36:54.074Z,55.20
2023-09-14T13:39:23.059Z,56.17
2023-09-14T13:41:53.159Z,55.00
2023-09-14T13:44:22.005Z,54.13
2023-09-14T13:46:49.464Z,54.04
2023-09-14T13:49:16.905Z,54.24
2023-09-14T13:51:45.019Z,53.73
2023-09-14T13:54:12.536Z,53.42
2023-09-14T13:56:41.362Z,55.23
2023-09-14T13:59:08.798Z,54.89
2023-09-14T14:01:37.041Z,53.32
2023-09-14T14:04:06.581Z,54.34
2023-09-14T14:06:34.251Z,55.19
2023-09-14T14:09:01.700Z,54.39
2023-09-14T14:11:29.126Z,54.38
2023-09-14T14:13:59.253Z,53.99
2023-09-14T14:16:26.749Z,55.29
2023-09-14T14:18:54.333Z,54.75
2023-09-14T14:21:22.961Z,54.15
2023-09-14T14:23:50.599Z,54.24
2023-09-14T14:26:18.123Z,53.77
2023-09-14T14:28:45.711Z,54.53
2023-09-14T14:31:14.908Z,53.73
2023-09-14T14:33:42.514Z,54.30
2023-09-14T14:36:09.968Z,54.49
2023-09-14T14:38:37.419Z,54.45
2023-09-14T14:43:35.836Z,54.46
2023-09-14T14:46:04.899Z,54.51
2023-09-14T14:48:33.801Z,54.24
2023-09-14T14:51:02.858Z,53.57
2023-09-14T14:53:30.533Z,53.17
2023-09-14T14:55:57.968Z,53.54
2023-09-14T14:58:26.286Z,53.83
2023-09-14T15:00:53.923Z,53.22
2023-09-14T15:03:21.473Z,54.02
2023-09-14T15:05:50.347Z,53.86
2023-09-14T15:08:18.346Z,54.00
2023-09-14T15:10:45.776Z,53.99
2023-09-14T15:13:13.215Z,54.72
2023-09-14T15:15:40.720Z,54.99
2023-09-14T15:18:08.514Z,53.52
2023-09-14T15:20:36.053Z,53.47
2023-09-14T15:23:05.025Z,53.93
2023-09-14T15:25:32.530Z,54.09
2023-09-14T15:28:00.718Z,54.96
2023-09-14T15:30:29.035Z,54.33
2023-09-14T15:32:56.556Z,54.34
2023-09-14T15:35:24.280Z,53.73
2023-09-14T15:37:51.801Z,55.27
2023-09-14T15:40:20.620Z,54.22
2023-09-14T15:42:48.184Z,55.42
2023-09-14T15:45:15.681Z,54.53
2023-09-14T15:47:45.276Z,54.48
2023-09-14T15:50:12.921Z,55.24
2023-09-14T15:52:40.504Z,55.21
2023-09-14T15:55:13.976Z,55.38
2023-09-14T15:57:50.604Z,55.38
2023-09-14T16:00:18.651Z,54.85
2023-09-14T16:02:46.287Z,55.13
2023-09-14T16:05:13.781Z,54.63
2023-09-14T16:07:42.077Z,55.07
2023-09-14T16:10:12.699Z,54.44
2023-09-14T16:12:40.494Z,54.94
2023-09-14T16:15:10.909Z,54.75
2023-09-14T16:17:38.782Z,54.80
2023-09-14T16:20:09.261Z,55.37
2023-09-14T16:22:36.711Z,54.91
2023-09-14T16:25:09.353Z,54.78
2023-09-14T16:27:37.401Z,54.55
2023-09-14T16:30:06.288Z,54.77
2023-09-14T16:32:35.375Z,55.13
2023-09-14T16:35:02.875Z,54.83
2023-09-14T16:37:30.327Z,55.77
2023-09-14T16:39:59.205Z,55.91
2023-09-14T16:42:26.861Z,55.20
2023-09-14T16:44:54.297Z,55.21
2023-09-14T16:47:21.719Z,56.14
2023-09-14T16:49:50.471Z,56.55
2023-09-14T16:52:18.205Z,57.27
2023-09-14T16:54:45.746Z,56.61
2023-09-14T16:57:13.328Z,56.52
2023-09-14T16:59:40.932Z,56.24
2023-09-14T17:02:10.461Z,56.58
2023-09-14T17:04:37.914Z,55.89
2023-09-14T17:07:06.768Z,56.00
2023-09-14T17:09:35.228Z,56.19
2023-09-14T17:12:02.686Z,55.81
2023-09-14T17:14:30.179Z,56.98
2023-09-14T17:16:57.652Z,56.57
2023-09-14T17:19:25.117Z,55.92
2023-09-14T17:21:52.646Z,56.13
2023-09-14T17:24:21.494Z,56.73
2023-09-14T17:26:49.418Z,56.46
2023-09-14T17:29:18.257Z,57.05
2023-09-14T17:31:45.777Z,57.35
2023-09-14T17:34:13.242Z,56.43
2023-09-14T17:36:43.499Z,56.91
2023-09-14T17:39:11.326Z,57.14
2023-09-14T17:41:40.078Z,57.16
2023-09-14T17:44:08.052Z,58.80
2023-09-14T17:46:35.678Z,60.15
2023-09-14T17:49:06.407Z,61.16
2023-09-14T17:51:34.783Z,61.62
2023-09-14T17:54:02.245Z,62.17
2023-09-14T17:56:29.692Z,61.88
2023-09-14T17:58:58.499Z,62.06
2023-09-14T18:01:26.159Z,62.52
2023-09-14T18:03:53.672Z,62.62
2023-09-14T18:06:21.137Z,61.75
2023-09-14T18:08:49.170Z,61.93
2023-09-14T18:11:17.323Z,62.10
2023-09-14T18:13:44.861Z,62.53
2023-09-14T18:16:15.750Z,62.16
2023-09-14T18:18:43.557Z,63.80
2023-09-14T18:21:13.771Z,62.98
2023-09-14T18:23:42.693Z,63.97
2023-09-14T18:26:10.380Z,63.46
2023-09-14T18:28:37.869Z,64.03
2023-09-14T18:31:06.194Z,64.41
2023-09-14T18:33:35.830Z,63.90
2023-09-14T18:36:03.375Z,65.06
2023-09-14T18:38:30.873Z,64.09
2023-09-14T18:40:59.663Z,64.92
2023-09-14T18:43:27.172Z,65.12
2023-09-14T18:45:54.881Z,65.64
2023-09-14T18:48:24.614Z,65.82
2023-09-14T18:51:00.127Z,65.77
2023-09-14T18:53:27.692Z,66.11
2023-09-14T18:55:55.173Z,66.71
2023-09-14T18:58:53.022Z,67.09
2023-09-14T19:01:11.638Z,66.80
2023-09-14T19:03:39.657Z,67.10
2023-09-14T19:06:08.527Z,67.81
2023-09-14T19:08:36.915Z,67.56
2023-09-14T19:11:06.663Z,67.40
2023-09-14T19:13:34.978Z,68.06
2023-09-14T19:16:02.553Z,67.97
2023-09-14T19:18:30.155Z,68.96
2023-09-14T19:20:59.219Z,68.39
2023-09-14T19:23:28.348Z,68.07
2023-09-14T19:25:56.393Z,68.23
2023-09-14T19:28:25.603Z,68.37
2023-09-14T19:30:53.121Z,69.06
2023-09-14T19:33:21.296Z,68.57
2023-09-14T19:35:53.144Z,68.95
2023-09-14T19:38:21.282Z,68.43
2023-09-14T19:40:50.810Z,69.74
2023-09-14T19:43:18.225Z,70.02
2023-09-14T19:45:45.752Z,70.31
2023-09-14T19:48:13.352Z,71.97
2023-09-14T19:50:41.779Z,70.69
2023-09-14T19:53:09.266Z,72.26
2023-09-14T19:55:37.110Z,72.69
2023-09-14T19:58:06.223Z,72.57
2023-09-14T20:00:33.793Z,71.71
2023-09-14T20:03:01.363Z,71.54
2023-09-14T20:05:28.938Z,71.79
2023-09-14T20:08:05.360Z,71.14
2023-09-14T20:10:32.770Z,71.51
2023-09-14T20:13:00.441Z,71.71
2023-09-14T20:15:29.895Z,71.06
2023-09-14T20:17:58.622Z,71.38
2023-09-14T20:20:26.116Z,72.09
2023-09-14T20:22:53.618Z,73.06
2023-09-14T20:25:21.101Z,72.54
2023-09-14T20:27:48.585Z,73.03
2023-09-14T20:30:16.189Z,73.10
2023-09-14T20:32:45.094Z,72.78
2023-09-14T20:35:12.724Z,73.22
2023-09-14T20:37:40.154Z,72.84
2023-09-14T20:40:11.771Z,73.38
2023-09-14T20:42:40.646Z,72.86
2023-09-14T20:45:12.919Z,72.66
2023-09-14T20:47:41.741Z,73.29
2023-09-14T20:50:14.195Z,74.12
2023-09-14T20:52:42.029Z,74.13
2023-09-14T20:55:13.467Z,74.58
2023-09-14T20:57:41.870Z,74.29
2023-09-14T21:00:12.888Z,74.01
2023-09-14T21:02:41.107Z,74.42
2023-09-14T21:05:10.284Z,74.38
2023-09-14T21:07:38.064Z,74.96
2023-09-14T21:10:06.217Z,74.26
2023-09-14T21:12:33.750Z,75.18
2023-09-14T21:15:01.426Z,74.20
2023-09-14T21:17:29.060Z,73.48
2023-09-14T21:19:56.645Z,72.69
2023-09-14T21:22:25.910Z,71.92
2023-09-14T21:24:54.060Z,72.39
2023-09-14T21:27:21.634Z,72.43
2023-09-14T21:29:49.582Z,73.43
2023-09-14T21:32:17.463Z,72.90
2023-09-14T21:34:45.134Z,73.29
2023-09-14T21:37:13.709Z,74.57
2023-09-14T21:39:42.570Z,73.97
2023-09-14T21:42:10.049Z,74.35
2023-09-14T21:44:37.767Z,74.47
2023-09-14T21:47:05.663Z,74.57
2023-09-14T21:49:35.022Z,74.42
2023-09-14T21:52:17.008Z,74.59
2023-09-14T21:54:47.295Z,75.50
2023-09-14T21:57:18.481Z,75.88
2023-09-14T21:59:45.939Z,76.41
2023-09-14T22:02:15.008Z,75.22
2023-09-14T22:04:42.550Z,74.71
2023-09-14T22:07:10.039Z,73.85
2023-09-14T22:09:38.485Z,74.72
2023-09-14T22:12:07.728Z,74.26
2023-09-14T22:14:35.348Z,73.31
2023-09-14T22:17:09.217Z,72.01
2023-09-14T22:19:36.996Z,72.98
2023-09-14T22:22:06.724Z,74.07
2023-09-14T22:24:34.693Z,72.36
2023-09-14T22:27:02.152Z,73.40
2023-09-14T22:29:33.849Z,73.09
2023-09-14T22:32:01.357Z,72.45
2023-09-14T22:34:29.452Z,72.90
2023-09-14T22:36:57.127Z,71.85
2023-09-14T22:39:25.218Z,71.64
2023-09-14T22:41:53.023Z,71.97
2023-09-14T22:44:20.509Z,70.75
2023-09-14T22:46:49.443Z,69.58
2023-09-14T22:49:17.160Z,68.92
2023-09-14T22:51:44.884Z,69.57
2023-09-14T22:54:12.383Z,68.92
2023-09-14T22:56:41.635Z,68.42
2023-09-14T22:59:09.097Z,69.63
2023-09-14T23:01:36.721Z,69.68
2023-09-14T23:04:06.072Z,70.06
2023-09-14T23:06:34.591Z,70.90
2023-09-14T23:09:04.074Z,71.51
2023-09-14T23:11:38.371Z,71.01
2023-09-14T23:14:06.037Z,70.71
2023-09-14T23:16:39.942Z,71.32
2023-09-14T23:19:10.214Z,70.92
2023-09-14T23:21:38.648Z,70.28
2023-09-14T23:24:10.748Z,72.38
2023-09-14T23:26:42.601Z,69.39
2023-09-14T23:29:12.978Z,68.95
2023-09-14T23:31:43.646Z,69.59
2023-09-14T23:34:13.553Z,70.12
2023-09-14T23:36:42.943Z,69.30
2023-09-14T23:39:12.475Z,70.00
2023-09-14T23:41:40.612Z,70.55
2023-09-14T23:44:10.076Z,70.63
2023-09-14T23:46:40.015Z,70.63
2023-09-14T23:49:09.390Z,69.99
2023-09-14T23:51:40.602Z,70.26
2023-09-14T23:54:08.507Z,70.99
2023-09-14T23:56:36.765Z,70.94
2023-09-14T23:59:05.568Z,71.67
